createdAt,value
2022-11-22T00:01:17.770Z,99.90
2022-11-22T00:03:48.083Z,99.90
2022-11-22T00:06:19.198Z,99.90
2022-11-22T00:08:51.534Z,99.90
2022-11-22T00:11:23.748Z,99.90
2022-11-22T00:13:58.504Z,99.90
2022-11-22T00:16:30.900Z,99.90
2022-11-22T00:19:07.058Z,99.90
2022-11-22T00:21:38.335Z,99.90
2022-11-22T00:24:09.360Z,99.90
2022-11-22T00:26:39.657Z,99.90
2022-11-22T00:29:18.790Z,99.90
2022-11-22T00:31:49.010Z,99.90
2022-11-22T00:34:19.330Z,99.90
2022-11-22T00:36:50.370Z,99.90
2022-11-22T00:39:20.752Z,99.90
2022-11-22T00:41:50.969Z,99.90
2022-11-22T00:44:22.860Z,99.90
2022-11-22T00:46:53.145Z,99.90
2022-11-22T00:49:23.322Z,99.90
2022-11-22T00:51:53.685Z,99.90
2022-11-22T00:54:24.054Z,99.90
2022-11-22T00:56:56.380Z,99.90
2022-11-22T00:59:29.268Z,99.90
2022-11-22T01:02:00.874Z,99.90
2022-11-22T01:04:31.281Z,99.90
2022-11-22T01:07:12.443Z,99.90
2022-11-22T01:09:44.230Z,99.90
2022-11-22T01:12:14.911Z,99.90
2022-11-22T01:14:47.371Z,99.90
2022-11-22T01:17:17.704Z,99.90
2022-11-22T01:19:48.999Z,99.90
2022-11-22T01:22:19.325Z,99.90
2022-11-22T01:24:49.502Z,99.90
2022-11-22T01:27:20.374Z,99.90
2022-11-22T01:29:54.743Z,99.90
2022-11-22T01:32:25.128Z,99.90
2022-11-22T01:34:55.365Z,99.90
2022-11-22T01:37:25.587Z,99.90
2022-11-22T01:39:55.686Z,99.90
2022-11-22T01:42:26.145Z,99.90
2022-11-22T01:44:58.390Z,99.90
2022-11-22T01:47:30.700Z,99.90
2022-11-22T01:50:05.288Z,99.90
2022-11-22T01:52:37.883Z,99.90
2022-11-22T01:55:17.042Z,99.90
2022-11-22T01:57:49.660Z,99.90
2022-11-22T02:00:25.619Z,99.90
2022-11-22T02:02:59.802Z,99.90
2022-11-22T02:05:36.416Z,99.90
2022-11-22T02:08:15.214Z,99.90
2022-11-22T02:10:49.459Z,99.90
2022-11-22T02:13:21.822Z,99.90
2022-11-22T02:15:54.921Z,99.90
2022-11-22T02:18:25.201Z,99.90
2022-11-22T02:20:56.480Z,99.90
2022-11-22T02:23:34.023Z,99.90
2022-11-22T02:26:06.311Z,99.90
2022-11-22T02:28:40.298Z,99.90
2022-11-22T02:31:10.503Z,99.90
2022-11-22T02:33:41.506Z,99.90
2022-11-22T02:36:14.280Z,99.90
2022-11-22T02:38:44.935Z,99.90
2022-11-22T02:41:16.874Z,99.90
2022-11-22T02:43:49.317Z,99.90
2022-11-22T02:46:23.343Z,99.90
2022-11-22T02:48:53.747Z,99.90
2022-11-22T02:51:23.934Z,99.90
2022-11-22T02:53:54.806Z,99.90
2022-11-22T02:56:26.595Z,99.90
2022-11-22T02:58:56.791Z,99.90
2022-11-22T03:01:26.992Z,99.90
2022-11-22T03:03:57.186Z,99.90
2022-11-22T03:06:27.914Z,99.90
2022-11-22T03:08:59.067Z,99.90
2022-11-22T03:11:30.986Z,99.90
2022-11-22T03:14:01.128Z,99.90
2022-11-22T03:16:32.402Z,99.90
2022-11-22T03:19:02.513Z,99.90
2022-11-22T03:21:32.718Z,99.90
2022-11-22T03:24:02.798Z,99.90
2022-11-22T03:26:34.648Z,99.90
2022-11-22T03:29:05.024Z,99.90
2022-11-22T03:31:35.306Z,99.90
2022-11-22T03:34:05.439Z,99.90
2022-11-22T03:36:35.705Z,99.90
2022-11-22T03:39:06.126Z,99.90
2022-11-22T03:41:38.005Z,99.90
2022-11-22T03:44:08.590Z,99.90
2022-11-22T03:46:38.785Z,99.90
2022-11-22T03:49:08.920Z,99.90
2022-11-22T03:51:39.218Z,99.90
2022-11-22T03:54:09.812Z,99.90
2022-11-22T03:56:42.017Z,99.90
2022-11-22T03:59:12.102Z,99.90
2022-11-22T04:01:42.398Z,99.90
2022-11-22T04:04:13.668Z,99.90
2022-11-22T04:06:43.798Z,99.90
2022-11-22T04:09:14.184Z,99.90
2022-11-22T04:11:50.298Z,99.90
2022-11-22T04:14:37.401Z,99.90
2022-11-22T04:17:07.595Z,99.90
2022-11-22T04:19:37.784Z,99.90
2022-11-22T04:22:06.725Z,99.90
2022-11-22T04:24:53.955Z,99.90
2022-11-22T04:27:26.295Z,99.90
2022-11-22T04:29:56.524Z,99.90
2022-11-22T04:32:43.381Z,99.90
2022-11-22T04:35:13.595Z,99.90
2022-11-22T04:37:43.962Z,99.90
2022-11-22T04:40:14.491Z,99.90
2022-11-22T04:43:02.909Z,99.90
2022-11-22T04:45:33.305Z,99.90
2022-11-22T04:48:03.633Z,99.90
2022-11-22T04:50:51.427Z,99.90
2022-11-22T04:53:22.117Z,99.90
2022-11-22T04:55:52.681Z,99.90
2022-11-22T04:58:24.687Z,99.90
2022-11-22T05:00:54.971Z,99.90
2022-11-22T05:03:25.110Z,99.90
2022-11-22T05:05:55.362Z,99.90
2022-11-22T05:08:25.734Z,99.90
2022-11-22T05:10:59.045Z,99.90
2022-11-22T05:13:33.680Z,99.90
2022-11-22T05:16:05.333Z,99.90
2022-11-22T05:18:36.216Z,99.90
2022-11-22T05:21:08.802Z,99.90
2022-11-22T05:23:56.116Z,99.90
2022-11-22T05:26:27.438Z,99.90
2022-11-22T05:29:00.508Z,99.90
2022-11-22T05:31:30.906Z,99.90
2022-11-22T05:36:40.246Z,99.90
2022-11-22T05:39:10.380Z,99.90
2022-11-22T05:41:56.479Z,99.90
2022-11-22T05:44:26.713Z,99.90
2022-11-22T05:46:56.936Z,99.90
2022-11-22T05:49:27.265Z,99.90
2022-11-22T05:51:59.222Z,99.90
2022-11-22T05:54:29.338Z,99.90
2022-11-22T05:56:59.599Z,99.90
2022-11-22T05:59:29.971Z,99.90
2022-11-22T06:02:00.404Z,99.90
2022-11-22T06:04:30.616Z,99.90
2022-11-22T06:07:06.801Z,99.90
2022-11-22T06:09:39.937Z,99.90
2022-11-22T06:12:10.620Z,99.90
2022-11-22T06:14:43.401Z,99.90
2022-11-22T06:17:14.003Z,99.90
2022-11-22T06:19:44.202Z,99.90
2022-11-22T06:22:16.029Z,99.90
2022-11-22T06:24:46.167Z,99.90
2022-11-22T06:27:16.325Z,99.90
2022-11-22T06:29:46.569Z,99.90
2022-11-22T06:32:16.790Z,99.90
2022-11-22T06:34:47.407Z,99.90
2022-11-22T06:37:19.832Z,99.90
2022-11-22T06:39:50.896Z,99.90
2022-11-22T06:42:21.095Z,99.90
2022-11-22T06:44:51.228Z,99.90
2022-11-22T06:47:21.493Z,99.90
2022-11-22T06:49:51.668Z,99.90
2022-11-22T06:52:23.449Z,99.90
2022-11-22T06:54:53.620Z,99.90
2022-11-22T06:57:23.888Z,99.90
2022-11-22T06:59:53.979Z,99.90
2022-11-22T07:02:24.145Z,99.90
2022-11-22T07:05:23.475Z,99.90
2022-11-22T07:07:46.179Z,99.90
2022-11-22T07:10:16.539Z,99.90
2022-11-22T07:12:46.821Z,99.90
2022-11-22T07:15:17.139Z,99.90
2022-11-22T07:17:47.368Z,99.90
2022-11-22T07:20:18.122Z,99.90
2022-11-22T07:22:50.459Z,99.90
2022-11-22T07:25:20.585Z,99.90
2022-11-22T07:27:50.766Z,99.90
2022-11-22T07:30:21.107Z,99.90
2022-11-22T07:32:51.657Z,99.90
2022-11-22T07:35:21.878Z,99.90
2022-11-22T07:37:54.255Z,99.90
2022-11-22T07:40:24.443Z,99.90
2022-11-22T07:42:58.472Z,99.90
2022-11-22T07:45:29.357Z,99.90
2022-11-22T07:48:02.554Z,99.90
2022-11-22T07:50:33.134Z,99.90
2022-11-22T07:53:04.910Z,99.90
2022-11-22T07:55:35.044Z,99.90
2022-11-22T07:58:05.750Z,99.90
2022-11-22T08:00:36.075Z,99.90
2022-11-22T08:03:06.756Z,99.90
2022-11-22T08:05:36.985Z,99.90
2022-11-22T08:08:09.338Z,99.70
2022-11-22T08:10:39.535Z,99.10
2022-11-22T08:13:09.755Z,99.10
2022-11-22T08:15:39.983Z,99.00
2022-11-22T08:18:10.287Z,98.60
2022-11-22T08:20:40.534Z,98.50
2022-11-22T08:23:12.480Z,98.70
2022-11-22T08:25:42.694Z,98.60
2022-11-22T08:28:13.850Z,98.60
2022-11-22T08:30:44.027Z,98.40
2022-11-22T08:33:14.208Z,98.90
2022-11-22T08:35:44.456Z,99.00
2022-11-22T08:38:16.496Z,98.70
2022-11-22T08:40:46.639Z,98.50
2022-11-22T08:43:16.920Z,98.70
2022-11-22T08:45:47.211Z,98.40
2022-11-22T08:48:21.981Z,98.30
2022-11-22T08:50:56.571Z,98.00
2022-11-22T08:53:28.871Z,97.90
2022-11-22T08:56:01.458Z,98.50
2022-11-22T08:58:32.970Z,98.50
2022-11-22T09:01:08.082Z,98.40
2022-11-22T09:03:38.845Z,98.70
2022-11-22T09:09:29.974Z,98.70
2022-11-22T09:11:52.419Z,98.60
2022-11-22T09:14:22.696Z,99.00
2022-11-22T09:16:53.081Z,99.10
2022-11-22T09:19:23.327Z,99.00
2022-11-22T09:21:53.495Z,99.10
2022-11-22T09:24:25.298Z,99.70
2022-11-22T09:26:55.671Z,99.70
2022-11-22T09:29:26.103Z,99.70
2022-11-22T09:31:56.790Z,99.90
2022-11-22T09:34:27.333Z,99.90
2022-11-22T09:36:57.520Z,99.90
2022-11-22T09:39:29.819Z,99.90
2022-11-22T09:42:18.315Z,99.90
2022-11-22T09:45:02.087Z,99.90
2022-11-22T09:47:41.877Z,99.90
2022-11-22T09:50:22.207Z,99.90
2022-11-22T09:52:56.710Z,99.90
2022-11-22T09:55:34.386Z,99.90
2022-11-22T09:58:12.762Z,99.90
2022-11-22T10:00:50.641Z,99.90
2022-11-22T10:03:29.622Z,99.90
2022-11-22T10:06:03.739Z,99.90
2022-11-22T10:08:41.176Z,99.90
2022-11-22T10:11:23.500Z,99.90
2022-11-22T10:13:57.639Z,99.90
2022-11-22T10:16:34.335Z,99.90
2022-11-22T10:19:12.038Z,99.90
2022-11-22T10:21:43.014Z,99.90
2022-11-22T10:24:17.869Z,99.90
2022-11-22T10:26:50.676Z,99.90
2022-11-22T10:29:31.687Z,99.90
2022-11-22T10:32:10.684Z,99.90
2022-11-22T10:34:54.393Z,99.90
2022-11-22T10:37:32.891Z,99.90
2022-11-22T10:40:13.568Z,99.90
2022-11-22T10:43:01.452Z,99.90
2022-11-22T10:45:35.853Z,99.90
2022-11-22T10:48:18.923Z,99.90
2022-11-22T10:50:58.781Z,99.90
2022-11-22T10:53:39.824Z,99.90
2022-11-22T10:56:17.677Z,99.90
2022-11-22T10:59:14.800Z,99.90
2022-11-22T11:01:50.839Z,99.90
2022-11-22T11:04:22.620Z,99.90
2022-11-22T11:07:14.968Z,99.90
2022-11-22T11:10:10.178Z,99.90
2022-11-22T11:12:43.818Z,99.90
2022-11-22T11:15:23.430Z,99.90
2022-11-22T11:18:00.941Z,99.90
2022-11-22T11:20:35.993Z,99.90
2022-11-22T11:23:14.745Z,99.90
2022-11-22T11:25:46.523Z,99.90
2022-11-22T11:28:22.494Z,99.90
2022-11-22T11:30:57.664Z,99.90
2022-11-22T11:33:30.621Z,99.90
2022-11-22T11:36:06.632Z,99.90
2022-11-22T11:38:39.217Z,99.90
2022-11-22T11:41:21.451Z,99.90
2022-11-22T11:43:52.622Z,99.90
2022-11-22T11:46:25.772Z,99.90
2022-11-22T11:48:57.131Z,99.90
2022-11-22T11:51:37.698Z,99.90
2022-11-22T11:54:13.389Z,99.90
2022-11-22T11:56:51.116Z,99.90
2022-11-22T11:59:22.915Z,99.90
2022-11-22T12:02:01.161Z,99.90
2022-11-22T12:04:34.654Z,99.90
2022-11-22T12:07:08.706Z,99.90
2022-11-22T12:09:46.028Z,99.90
2022-11-22T12:12:34.030Z,99.90
2022-11-22T12:15:14.741Z,99.90
2022-11-22T12:17:55.276Z,99.90
2022-11-22T12:20:31.752Z,99.90
2022-11-22T12:23:15.650Z,99.90
2022-11-22T12:25:47.781Z,99.90
2022-11-22T12:28:22.058Z,99.90
2022-11-22T12:30:57.985Z,99.90
2022-11-22T12:33:35.150Z,99.90
2022-11-22T12:36:09.548Z,99.90
2022-11-22T12:38:43.446Z,99.90
2022-11-22T12:41:17.779Z,99.90
2022-11-22T12:43:52.506Z,99.90
2022-11-22T12:46:26.670Z,99.90
2022-11-22T12:49:03.216Z,99.90
2022-11-22T12:51:44.538Z,99.90
2022-11-22T12:54:19.040Z,99.90
2022-11-22T12:56:53.813Z,99.90
2022-11-22T12:59:34.330Z,99.90
2022-11-22T13:02:14.677Z,99.90
2022-11-22T13:04:54.188Z,99.90
2022-11-22T13:07:32.507Z,99.90
2022-11-22T13:10:09.775Z,99.90
2022-11-22T13:12:43.271Z,99.90
2022-11-22T13:15:16.831Z,99.90
2022-11-22T13:17:47.450Z,99.90
2022-11-22T13:20:23.066Z,99.90
2022-11-22T13:23:06.813Z,99.90
2022-11-22T13:25:47.887Z,99.90
2022-11-22T13:28:21.597Z,99.90
2022-11-22T13:31:09.001Z,99.90
2022-11-22T13:33:41.377Z,99.90
2022-11-22T13:36:41.999Z,99.90
2022-11-22T13:39:18.507Z,99.90
2022-11-22T13:41:57.711Z,99.90
2022-11-22T13:44:51.222Z,99.90
2022-11-22T13:47:48.533Z,99.90
2022-11-22T13:50:57.712Z,99.90
2022-11-22T13:53:34.879Z,99.90
2022-11-22T13:57:01.604Z,99.90
2022-11-22T13:59:32.081Z,99.90
2022-11-22T14:02:23.639Z,99.90
2022-11-22T14:04:58.792Z,99.90
2022-11-22T14:07:40.026Z,99.90
2022-11-22T14:10:31.861Z,99.90
2022-11-22T14:13:19.270Z,99.90
2022-11-22T14:16:05.588Z,99.90
2022-11-22T14:19:08.888Z,99.90
2022-11-22T14:22:24.065Z,99.90
2022-11-22T14:25:35.299Z,99.90
2022-11-22T14:28:23.155Z,99.90
2022-11-22T14:30:56.021Z,99.90
2022-11-22T14:33:29.296Z,99.90
2022-11-22T14:36:19.514Z,99.90
2022-11-22T14:38:51.603Z,99.90
2022-11-22T14:41:45.170Z,99.90
2022-11-22T14:46:51.810Z,99.90
2022-11-22T14:48:06.088Z,99.90
2022-11-22T14:50:43.439Z,99.90
2022-11-22T14:53:33.557Z,99.90
2022-11-22T14:56:09.903Z,99.90
2022-11-22T14:58:59.896Z,99.90
2022-11-22T15:02:29.650Z,99.90
2022-11-22T15:09:11.678Z,99.90
2022-11-22T15:09:12.939Z,99.90
2022-11-22T15:12:21.216Z,99.90
2022-11-22T15:59:18.654Z,98.20
2022-11-22T16:01:58.316Z,98.40
2022-11-22T16:04:33.727Z,96.80
2022-11-22T16:07:05.949Z,96.90
2022-11-22T16:09:38.444Z,97.50
2022-11-22T16:12:25.935Z,96.40
2022-11-22T16:14:57.031Z,95.40
2022-11-22T16:17:30.033Z,95.70
2022-11-22T16:20:26.960Z,97.20
2022-11-22T16:23:08.259Z,97.20
2022-11-22T16:25:43.798Z,97.10
2022-11-22T16:28:33.972Z,97.60
2022-11-22T16:31:10.745Z,95.60
2022-11-22T16:33:40.971Z,96.20
2022-11-22T16:36:23.397Z,95.40
2022-11-22T16:38:53.966Z,96.30
2022-11-22T16:41:27.223Z,96.70
2022-11-22T16:44:22.422Z,95.10
2022-11-22T16:46:52.992Z,95.50
2022-11-22T16:49:27.045Z,94.90
2022-11-22T16:52:01.609Z,94.90
2022-11-22T16:54:34.937Z,95.50
2022-11-22T16:57:07.666Z,95.80
2022-11-22T16:59:41.211Z,95.20
2022-11-22T17:09:05.767Z,94.10
2022-11-22T17:12:00.525Z,95.10
2022-11-22T17:14:31.840Z,94.60
2022-11-22T17:17:05.466Z,94.70
2022-11-22T17:19:52.779Z,94.10
2022-11-22T17:22:27.195Z,94.40
2022-11-22T17:25:00.456Z,94.90
2022-11-22T17:27:33.098Z,94.40
2022-11-22T17:30:06.307Z,94.20
2022-11-22T17:32:41.742Z,93.50
2022-11-22T17:35:27.995Z,93.20
2022-11-22T17:38:00.312Z,93.70
2022-11-22T17:40:33.024Z,93.50
2022-11-22T17:43:03.775Z,92.80
2022-11-22T17:51:42.935Z,94.30
2022-11-22T17:54:54.221Z,94.50
2022-11-22T17:57:27.743Z,93.70
2022-11-22T18:00:30.102Z,94.50
2022-11-22T18:03:08.020Z,94.50
2022-11-22T18:05:49.608Z,94.00
2022-11-22T18:12:27.608Z,96.10
2022-11-22T18:18:57.470Z,94.80
2022-11-22T18:21:37.830Z,93.60
2022-11-22T18:24:58.138Z,93.80
2022-11-22T18:28:04.544Z,94.40
2022-11-22T19:10:17.605Z,96.40
2022-11-22T19:16:31.560Z,96.10
2022-11-22T19:55:26.786Z,98.80
2022-11-22T19:58:31.399Z,99.60
2022-11-22T20:01:40.536Z,99.60
2022-11-22T20:04:23.985Z,99.90
2022-11-22T20:07:20.159Z,99.90
2022-11-22T20:10:28.326Z,99.90
2022-11-22T22:02:39.268Z,99.90
2022-11-22T22:06:30.816Z,99.90
2022-11-22T22:13:10.163Z,99.90
2022-11-22T22:19:45.279Z,99.90
2022-11-22T22:22:50.029Z,99.90
2022-11-22T22:36:47.788Z,99.90
2022-11-22T22:39:24.812Z,99.90
2022-11-22T22:42:11.483Z,99.90
2022-11-22T22:44:44.062Z,99.90
2022-11-22T22:47:14.388Z,99.90
2022-11-22T22:49:48.808Z,99.90
2022-11-22T22:52:19.082Z,99.90
2022-11-22T23:05:36.419Z,99.90
2022-11-22T23:06:55.855Z,99.90
2022-11-22T23:09:52.331Z,99.90
2022-11-22T23:12:22.550Z,99.90
2022-11-22T23:16:29.733Z,99.90
2022-11-22T23:22:25.873Z,99.90
2022-11-22T23:24:56.567Z,99.90
2022-11-22T23:27:28.178Z,99.90
2022-11-22T23:30:08.008Z,99.90
2022-11-22T23:32:42.097Z,99.90
2022-11-22T23:35:31.870Z,99.90
